createdAt,value
2023-08-07T00:00:25.507Z,100961.19
2023-08-07T00:00:57.119Z,100962.84
2023-08-07T00:01:28.691Z,100960.75
2023-08-07T00:02:00.396Z,100952.72
2023-08-07T00:02:31.996Z,100961.19
2023-08-07T00:03:04.146Z,100957.50
2023-08-07T00:03:36.823Z,100958.31
2023-08-07T00:04:08.527Z,100950.72
2023-08-07T00:04:40.149Z,100955.84
2023-08-07T00:05:12.792Z,100951.28
2023-08-07T00:05:46.473Z,100957.91
2023-08-07T00:06:18.142Z,100963.03
2023-08-07T00:06:49.760Z,100955.84
2023-08-07T00:07:21.558Z,100953.78
2023-08-07T00:07:53.256Z,100959.31
2023-08-07T00:08:24.822Z,100959.56
2023-08-07T00:08:56.776Z,100959.94
2023-08-07T00:09:28.417Z,100955.03
2023-08-07T00:10:01.805Z,100956.06
2023-08-07T00:10:33.409Z,100957.91
2023-08-07T00:11:08.952Z,100958.75
2023-08-07T00:11:40.610Z,100961.25
2023-08-07T00:12:12.284Z,100954.19
2023-08-07T00:12:44.214Z,100948.03
2023-08-07T00:13:15.800Z,100953.81
2023-08-07T00:13:47.321Z,100951.97
2023-08-07T00:14:18.862Z,100953.00
2023-08-07T00:14:51.570Z,100954.63
2023-08-07T00:15:23.257Z,100953.38
2023-08-07T00:15:55.091Z,100948.84
2023-08-07T00:16:26.686Z,100947.19
2023-08-07T00:17:00.087Z,100950.09
2023-08-07T00:17:31.873Z,100955.09
2023-08-07T00:18:03.557Z,100949.28
2023-08-07T00:18:35.138Z,100948.69
2023-08-07T00:19:06.735Z,100947.66
2023-08-07T00:19:38.328Z,100951.72
2023-08-07T00:20:10.289Z,100943.72
2023-08-07T00:20:41.823Z,100949.28
2023-08-07T00:21:13.347Z,100944.16
2023-08-07T00:21:44.887Z,100946.25
2023-08-07T00:22:16.484Z,100946.03
2023-08-07T00:22:48.113Z,100939.06
2023-08-07T00:23:19.764Z,100946.84
2023-08-07T00:23:51.440Z,100948.13
2023-08-07T00:24:22.972Z,100941.50
2023-08-07T00:24:54.881Z,100949.16
2023-08-07T00:25:26.740Z,100945.69
2023-08-07T00:25:58.309Z,100941.50
2023-08-07T00:26:29.845Z,100942.31
2023-08-07T00:27:01.379Z,100945.22
2023-08-07T00:27:32.926Z,100944.88
2023-08-07T00:28:04.724Z,100948.47
2023-08-07T00:28:36.288Z,100948.25
2023-08-07T00:29:07.856Z,100946.03
2023-08-07T00:29:39.914Z,100947.06
2023-08-07T00:30:12.375Z,100944.41
2023-08-07T00:30:43.994Z,100954.63
2023-08-07T00:31:15.665Z,100947.66
2023-08-07T00:31:47.277Z,100948.25
2023-08-07T00:32:19.649Z,100945.56
2023-08-07T00:32:51.202Z,100949.28
2023-08-07T00:33:22.875Z,100945.78
2023-08-07T00:33:56.367Z,100938.16
2023-08-07T00:34:28.302Z,100947.19
2023-08-07T00:34:59.973Z,100951.53
2023-08-07T00:35:31.501Z,100944.97
2023-08-07T00:36:03.437Z,100946.84
2023-08-07T00:36:36.146Z,100948.25
2023-08-07T00:37:07.751Z,100950.72
2023-08-07T00:37:40.108Z,100946.78
2023-08-07T00:38:11.713Z,100950.47
2023-08-07T00:38:43.258Z,100953.16
2023-08-07T00:39:14.837Z,100952.53
2023-08-07T00:39:46.382Z,100953.59
2023-08-07T00:40:18.541Z,100953.38
2023-08-07T00:40:50.113Z,100954.63
2023-08-07T00:41:21.732Z,100958.34
2023-08-07T00:41:53.312Z,100957.19
2023-08-07T00:42:24.946Z,100958.75
2023-08-07T00:42:56.478Z,100954.63
2023-08-07T00:43:28.031Z,100956.72
2023-08-07T00:43:59.580Z,100961.19
2023-08-07T00:44:31.118Z,100962.22
2023-08-07T00:45:02.691Z,100954.63
2023-08-07T00:45:38.310Z,100961.03
2023-08-07T00:46:10.052Z,100963.25
2023-08-07T00:46:41.830Z,100964.28
2023-08-07T00:47:13.866Z,100960.38
2023-08-07T00:47:45.711Z,100961.19
2023-08-07T00:48:17.636Z,100960.38
2023-08-07T00:48:49.237Z,100958.94
2023-08-07T00:49:21.281Z,100962.06
2023-08-07T00:49:52.837Z,100958.59
2023-08-07T00:50:28.463Z,100958.81
2023-08-07T00:51:08.912Z,100955.56
2023-08-07T00:51:40.758Z,100958.81
2023-08-07T00:52:12.395Z,100964.16
2023-08-07T00:52:44.036Z,100954.53
2023-08-07T00:53:15.808Z,100952.88
2023-08-07T00:53:48.118Z,100959.63
2023-08-07T00:54:20.607Z,100960.69
2023-08-07T00:54:52.298Z,100956.38
2023-08-07T00:55:23.905Z,100959.63
2023-08-07T00:55:55.609Z,100959.41
2023-08-07T00:56:27.405Z,100963.72
2023-08-07T00:57:11.824Z,100964.28
2023-08-07T00:57:43.393Z,100962.66
2023-08-07T00:58:16.038Z,100958.34
2023-08-07T00:58:47.687Z,100958.81
2023-08-07T00:59:19.986Z,100964.75
2023-08-07T00:59:51.859Z,100963.34
2023-08-07T01:00:23.714Z,100963.59
2023-08-07T01:00:56.474Z,100959.63
2023-08-07T01:01:28.497Z,100959.97
2023-08-07T01:02:00.177Z,100965.78
2023-08-07T01:02:32.287Z,100967.44
2023-08-07T01:03:06.843Z,100967.44
2023-08-07T01:03:39.029Z,100969.06
2023-08-07T01:04:10.720Z,100967.44
2023-08-07T01:04:42.341Z,100967.44
2023-08-07T01:05:13.883Z,100965.34
2023-08-07T01:05:45.653Z,100970.09
2023-08-07T01:06:17.308Z,100970.25
2023-08-07T01:06:49.041Z,100964.91
2023-08-07T01:07:20.770Z,100970.69
2023-08-07T01:07:55.753Z,100970.69
2023-08-07T01:08:28.478Z,100972.94
2023-08-07T01:09:00.635Z,100972.31
2023-08-07T01:09:32.277Z,100973.34
2023-08-07T01:10:05.037Z,100970.09
2023-08-07T01:11:01.410Z,100973.59
2023-08-07T01:11:48.986Z,100972.31
2023-08-07T01:12:21.522Z,100971.72
2023-08-07T01:13:01.209Z,100976.03
2023-08-07T01:13:49.360Z,100967.78
2023-08-07T01:14:47.991Z,100972.94
2023-08-07T01:15:27.438Z,100963.47
2023-08-07T01:16:03.571Z,100970.69
2023-08-07T01:16:41.071Z,100978.13
2023-08-07T01:17:16.137Z,100969.06
2023-08-07T01:17:48.233Z,100973.00
2023-08-07T01:18:20.242Z,100971.16
2023-08-07T01:18:52.089Z,100976.03
2023-08-07T01:19:29.974Z,100978.88
2023-08-07T01:20:01.794Z,100974.16
2023-08-07T01:20:33.431Z,100973.94
2023-08-07T01:21:05.109Z,100966.16
2023-08-07T01:21:36.823Z,100973.94
2023-08-07T01:22:18.327Z,100977.22
2023-08-07T01:22:49.976Z,100975.59
2023-08-07T01:23:21.519Z,100976.03
2023-08-07T01:23:53.082Z,100970.91
2023-08-07T01:24:24.704Z,100972.78
2023-08-07T01:24:56.404Z,100979.75
2023-08-07T01:25:29.600Z,100978.28
2023-08-07T01:26:01.160Z,100979.28
2023-08-07T01:26:32.923Z,100984.25
2023-08-07T01:27:19.656Z,100966.16
2023-08-07T01:28:04.051Z,100974.78
2023-08-07T01:28:39.643Z,100984.63
2023-08-07T01:29:18.620Z,100979.28
2023-08-07T01:30:00.945Z,100977.66
2023-08-07T01:30:38.486Z,100986.72
2023-08-07T01:31:12.940Z,100976.03
2023-08-07T01:31:45.879Z,100968.59
2023-08-07T01:32:23.734Z,100973.59
2023-08-07T01:33:07.144Z,100986.94
2023-08-07T01:33:49.505Z,100973.25
2023-08-07T01:34:25.145Z,100963.34
2023-08-07T01:34:57.655Z,100968.34
2023-08-07T01:35:33.992Z,100968.69
2023-08-07T01:36:09.843Z,100966.25
2023-08-07T01:36:41.659Z,100965.44
2023-08-07T01:37:13.681Z,100970.56
2023-08-07T01:37:46.598Z,100967.88
2023-08-07T01:38:18.761Z,100979.41
2023-08-07T01:38:56.066Z,100984.75
2023-08-07T01:39:27.974Z,100964.75
2023-08-07T01:40:01.691Z,100972.31
2023-08-07T01:40:33.969Z,100971.84
2023-08-07T01:41:05.829Z,100969.41
2023-08-07T01:41:37.793Z,100968.34
2023-08-07T01:42:10.841Z,100968.34
2023-08-07T01:42:42.603Z,100977.41
2023-08-07T01:43:14.172Z,100959.75
2023-08-07T01:43:46.151Z,100967.19
2023-08-07T01:44:17.698Z,100970.44
2023-08-07T01:44:49.275Z,100983.59
2023-08-07T01:45:25.134Z,100969.41
2023-08-07T01:45:56.767Z,100973.00
2023-08-07T01:46:28.460Z,100976.13
2023-08-07T01:47:00.078Z,100976.34
2023-08-07T01:47:31.916Z,100974.50
2023-08-07T01:48:03.963Z,100973.44
2023-08-07T01:48:35.734Z,100975.06
2023-08-07T01:49:08.116Z,100971.38
2023-08-07T01:49:41.580Z,100981.47
2023-08-07T01:50:13.205Z,100983.78
2023-08-07T01:50:44.891Z,100976.94
2023-08-07T01:51:16.530Z,100976.34
2023-08-07T01:51:48.034Z,100978.78
2023-08-07T01:52:19.926Z,100977.16
2023-08-07T01:52:51.679Z,100976.72
2023-08-07T01:53:23.306Z,100983.69
2023-08-07T01:53:54.984Z,100983.69
2023-08-07T01:54:26.586Z,100989.03
2023-08-07T01:54:58.204Z,100984.50
2023-08-07T01:55:29.944Z,100986.34
2023-08-07T01:56:01.733Z,100980.66
2023-08-07T01:56:33.352Z,100990.88
2023-08-07T01:57:05.432Z,100995.28
2023-08-07T01:57:36.983Z,100992.63
2023-08-07T01:58:09.013Z,100988.69
2023-08-07T01:58:40.615Z,100987.88
2023-08-07T01:59:12.268Z,100993.66
2023-08-07T01:59:45.831Z,100992.63
2023-08-07T02:00:18.056Z,100996.94
2023-08-07T02:00:49.638Z,100997.75
2023-08-07T02:01:21.215Z,100986.69
2023-08-07T02:01:52.887Z,100994.09
2023-08-07T02:02:24.813Z,100993.09
2023-08-07T02:02:56.566Z,100999.44
2023-08-07T02:03:28.655Z,100999.44
2023-08-07T02:04:00.504Z,101003.31
2023-08-07T02:04:32.514Z,101004.78
2023-08-07T02:05:05.039Z,100995.81
2023-08-07T02:05:36.724Z,100998.28
2023-08-07T02:06:08.448Z,100997.44
2023-08-07T02:06:40.115Z,101002.34
2023-08-07T02:07:11.738Z,101005.25
2023-08-07T02:07:43.677Z,100998.38
2023-08-07T02:08:15.288Z,101006.75
2023-08-07T02:08:46.813Z,101007.91
2023-08-07T02:09:18.364Z,101008.16
2023-08-07T02:09:50.050Z,101004.88
2023-08-07T02:10:21.639Z,101007.78
2023-08-07T02:10:53.198Z,101007.56
2023-08-07T02:11:25.360Z,101013.13
2023-08-07T02:11:56.916Z,101012.31
2023-08-07T02:12:30.809Z,101006.50
2023-08-07T02:13:03.923Z,101003.94
2023-08-07T02:13:35.514Z,101007.78
2023-08-07T02:14:07.124Z,101008.38
2023-08-07T02:14:38.701Z,101009.41
2023-08-07T02:15:10.518Z,101004.53
2023-08-07T02:15:42.168Z,101014.75
2023-08-07T02:16:13.730Z,101010.69
2023-08-07T02:16:45.543Z,101010.69
2023-08-07T02:17:18.299Z,101013.13
2023-08-07T02:17:50.143Z,101015.69
2023-08-07T02:18:22.490Z,101021.03
2023-08-07T02:18:54.066Z,101022.66
2023-08-07T02:19:25.618Z,101023.25
2023-08-07T02:19:57.934Z,101024.50
2023-08-07T02:20:29.569Z,101017.31
2023-08-07T02:21:01.165Z,101015.69
2023-08-07T02:21:33.083Z,101009.28
2023-08-07T02:22:04.993Z,101017.75
2023-08-07T02:22:36.589Z,101017.75
2023-08-07T02:23:08.220Z,101010.78
2023-08-07T02:23:40.000Z,101009.97
2023-08-07T02:24:11.577Z,101018.56
2023-08-07T02:24:44.624Z,101020.66
2023-08-07T02:25:16.686Z,101026.38
2023-08-07T02:25:49.597Z,101021.47
2023-08-07T02:26:21.117Z,101026.22
2023-08-07T02:26:52.738Z,101023.56
2023-08-07T02:27:24.639Z,101039.00
2023-08-07T02:27:56.221Z,101026.22
2023-08-07T02:28:28.530Z,101019.84
2023-08-07T02:29:02.835Z,101024.00
2023-08-07T02:29:35.419Z,101036.69
2023-08-07T02:30:07.538Z,101024.00
2023-08-07T02:30:39.104Z,101033.66
2023-08-07T02:31:10.732Z,101028.44
2023-08-07T02:31:42.347Z,101028.22
2023-08-07T02:32:14.034Z,101034.25
2023-08-07T02:32:45.820Z,101024.16
2023-08-07T02:33:17.447Z,101022.53
2023-08-07T02:33:49.910Z,101019.84
2023-08-07T02:34:21.558Z,101023.56
2023-08-07T02:34:53.106Z,101027.28
2023-08-07T02:35:24.624Z,101020.88
2023-08-07T02:35:56.706Z,101024.38
2023-08-07T02:36:28.317Z,101024.16
2023-08-07T02:37:00.536Z,101021.94
2023-08-07T02:37:32.103Z,101018.66
2023-08-07T02:38:03.947Z,101019.72
2023-08-07T02:38:35.624Z,101020.75
2023-08-07T02:39:07.826Z,101024.00
2023-08-07T02:39:39.444Z,101019.94
2023-08-07T02:40:12.104Z,101022.75
2023-08-07T02:40:44.551Z,101016.13
2023-08-07T02:41:16.165Z,101017.50
2023-08-07T02:41:47.739Z,101021.56
2023-08-07T02:42:19.314Z,101021.94
2023-08-07T02:42:51.087Z,101022.38
2023-08-07T02:43:22.650Z,101019.72
2023-08-07T02:43:54.450Z,101025.19
2023-08-07T02:44:26.052Z,101015.78
2023-08-07T02:44:57.792Z,101021.13
2023-08-07T02:45:29.464Z,101024.00
2023-08-07T02:46:01.082Z,101024.00
2023-08-07T02:46:32.735Z,101016.00
2023-08-07T02:47:04.781Z,101031.00
2023-08-07T02:47:36.502Z,101020.31
2023-08-07T02:48:08.172Z,101019.25
2023-08-07T02:48:41.075Z,101019.84
2023-08-07T02:49:14.143Z,101015.09
2023-08-07T02:49:45.879Z,101021.47
2023-08-07T02:50:17.528Z,101018.00
2023-08-07T02:50:50.046Z,101024.16
2023-08-07T02:51:21.612Z,101021.69
2023-08-07T02:51:53.269Z,101019.84
2023-08-07T02:52:24.977Z,101023.09
2023-08-07T02:52:56.526Z,101014.50
2023-08-07T02:53:28.114Z,101014.50
2023-08-07T02:53:59.747Z,101009.59
2023-08-07T02:54:31.367Z,101022.75
2023-08-07T02:55:03.207Z,101008.78
2023-08-07T02:55:34.814Z,101012.06
2023-08-07T02:56:06.429Z,101007.53
2023-08-07T02:56:38.059Z,101011.25
2023-08-07T02:57:09.781Z,101018.22
2023-08-07T02:57:41.372Z,101012.28
2023-08-07T02:58:12.965Z,101016.13
2023-08-07T02:58:44.538Z,101017.41
2023-08-07T02:59:16.767Z,101016.59
2023-08-07T02:59:48.538Z,101018.00
2023-08-07T03:00:22.255Z,101016.13
2023-08-07T03:00:55.151Z,101016.59
2023-08-07T03:01:28.712Z,101014.94
2023-08-07T03:02:00.375Z,101020.66
2023-08-07T03:02:32.051Z,101014.94
2023-08-07T03:03:03.739Z,101021.34
2023-08-07T03:03:35.736Z,101016.59
2023-08-07T03:04:07.520Z,101021.94
2023-08-07T03:04:39.106Z,101021.94
2023-08-07T03:05:10.933Z,101021.94
2023-08-07T03:05:50.221Z,101013.69
2023-08-07T03:06:22.880Z,101021.94
2023-08-07T03:06:54.772Z,101016.34
2023-08-07T03:07:26.548Z,101021.94
2023-08-07T03:07:58.154Z,101022.75
2023-08-07T03:08:29.759Z,101023.78
2023-08-07T03:09:01.325Z,101012.88
2023-08-07T03:09:32.946Z,101024.84
2023-08-07T03:10:05.244Z,101027.28
2023-08-07T03:10:36.838Z,101021.34
2023-08-07T03:11:08.415Z,101020.88
2023-08-07T03:11:40.070Z,101026.09
2023-08-07T03:12:11.640Z,101018.09
2023-08-07T03:12:43.164Z,101025.28
2023-08-07T03:13:14.778Z,101012.75
2023-08-07T03:13:46.448Z,101026.09
2023-08-07T03:14:17.993Z,101016.13
2023-08-07T03:14:49.549Z,101015.53
2023-08-07T03:15:21.143Z,101021.94
2023-08-07T03:16:00.910Z,101014.50
2023-08-07T03:16:32.739Z,101015.53
2023-08-07T03:17:04.642Z,101022.97
2023-08-07T03:17:36.759Z,101015.53
2023-08-07T03:18:08.379Z,101016.22
2023-08-07T03:18:40.012Z,101018.66
2023-08-07T03:19:11.611Z,101003.81
2023-08-07T03:19:44.479Z,101010.19
2023-08-07T03:20:17.643Z,101006.94
2023-08-07T03:20:49.230Z,101018.44
2023-08-07T03:21:20.809Z,101002.78
2023-08-07T03:21:52.542Z,101008.34
2023-08-07T03:22:24.698Z,101007.38
2023-08-07T03:22:56.355Z,101005.53
2023-08-07T03:23:28.566Z,101007.53
2023-08-07T03:24:01.752Z,101005.91
2023-08-07T03:24:33.422Z,101006.25
2023-08-07T03:25:06.044Z,101005.09
2023-08-07T03:25:37.926Z,101006.47
2023-08-07T03:26:48.445Z,101002.19
2023-08-07T03:27:20.486Z,101000.56
2023-08-07T03:27:52.118Z,101001.00
2023-08-07T03:28:23.713Z,101002.63
2023-08-07T03:28:55.311Z,101003.22
2023-08-07T03:29:26.937Z,101002.03
2023-08-07T03:29:59.836Z,101004.25
2023-08-07T03:30:34.328Z,100997.75
2023-08-07T03:31:05.973Z,101001.00
2023-08-07T03:31:40.055Z,100993.22
2023-08-07T03:32:12.080Z,100990.97
2023-08-07T03:32:44.008Z,101001.59
2023-08-07T03:33:18.131Z,101002.03
2023-08-07T03:33:49.697Z,100996.69
2023-08-07T03:34:23.132Z,100997.56
2023-08-07T03:34:54.674Z,101001.88
2023-08-07T03:35:26.298Z,100999.38
2023-08-07T03:35:58.000Z,101007.63
2023-08-07T03:36:29.638Z,100999.81
2023-08-07T03:37:01.596Z,101004.72
2023-08-07T03:37:33.221Z,101006.34
2023-08-07T03:38:04.968Z,101003.22
2023-08-07T03:38:36.738Z,101005.75
2023-08-07T03:39:08.901Z,101002.88
2023-08-07T03:39:40.647Z,101004.31
2023-08-07T03:40:12.408Z,101005.75
2023-08-07T03:40:44.784Z,100998.63
2023-08-07T03:41:16.397Z,101007.84
2023-08-07T03:41:48.345Z,101006.34
2023-08-07T03:42:19.983Z,101007.38
2023-08-07T03:42:52.402Z,101007.84
2023-08-07T03:43:24.223Z,101007.22
2023-08-07T03:43:56.395Z,101006.00
2023-08-07T03:44:28.429Z,100998.97
2023-08-07T03:45:00.200Z,101006.81
2023-08-07T03:45:31.834Z,101003.75
2023-08-07T03:46:04.416Z,101005.59
2023-08-07T03:46:36.316Z,101004.31
2023-08-07T03:47:07.908Z,101001.06
2023-08-07T03:47:39.704Z,101003.50
2023-08-07T03:48:11.296Z,101000.66
2023-08-07T03:48:42.859Z,101007.84
2023-08-07T03:49:15.214Z,100998.16
2023-08-07T03:49:46.770Z,101008.03
2023-08-07T03:50:18.390Z,101001.22
2023-08-07T03:50:49.995Z,100997.56
2023-08-07T03:51:22.672Z,101004.88
2023-08-07T03:51:57.497Z,100989.78
2023-08-07T03:52:29.184Z,100994.91
2023-08-07T03:53:00.900Z,100991.66
2023-08-07T03:53:32.793Z,100998.03
2023-08-07T03:54:04.472Z,100994.91
2023-08-07T03:54:36.104Z,100990.59
2023-08-07T03:55:08.030Z,100994.91
2023-08-07T03:55:40.546Z,100992.81
2023-08-07T03:56:12.133Z,100991.59
2023-08-07T03:56:43.811Z,100992.81
2023-08-07T03:57:15.406Z,100981.72
2023-08-07T03:57:47.741Z,100990.16
2023-08-07T03:58:19.325Z,100990.16
2023-08-07T03:58:51.368Z,100988.69
2023-08-07T03:59:25.104Z,100983.78
2023-08-07T03:59:57.923Z,100984.38
2023-08-07T04:00:29.719Z,100982.13
2023-08-07T04:01:01.377Z,100990.97
2023-08-07T04:01:33.037Z,100988.91
2023-08-07T04:02:05.001Z,100987.47
2023-08-07T04:02:37.128Z,100982.94
2023-08-07T04:03:08.754Z,100980.91
2023-08-07T04:03:40.447Z,100981.13
2023-08-07T04:04:12.122Z,100983.78
2023-08-07T04:04:44.613Z,100971.44
2023-08-07T04:05:16.202Z,100974.13
2023-08-07T04:05:47.810Z,100974.50
2023-08-07T04:06:19.511Z,100975.31
2023-08-07T04:06:51.208Z,100974.13
2023-08-07T04:07:23.352Z,100979.69
2023-08-07T04:07:54.963Z,100979.28
2023-08-07T04:08:28.349Z,100973.91
2023-08-07T04:09:00.138Z,100973.53
2023-08-07T04:09:32.853Z,100970.44
2023-08-07T04:10:04.783Z,100974.50
2023-08-07T04:10:36.322Z,100974.13
2023-08-07T04:11:08.632Z,100970.22
2023-08-07T04:11:41.263Z,100982.75
2023-08-07T04:12:12.904Z,100979.28
2023-08-07T04:12:44.725Z,100980.97
2023-08-07T04:13:16.323Z,100980.16
2023-08-07T04:13:47.866Z,100978.28
2023-08-07T04:14:19.426Z,100980.97
2023-08-07T04:14:51.081Z,100985.84
2023-08-07T04:15:22.670Z,100982.59
2023-08-07T04:15:54.350Z,100981.53
2023-08-07T04:16:26.490Z,100986.88
2023-08-07T04:16:58.603Z,100985.25
2023-08-07T04:17:30.333Z,100977.25
2023-08-07T04:18:02.243Z,100986.66
2023-08-07T04:18:34.458Z,100984.22
2023-08-07T04:19:10.465Z,100988.53
2023-08-07T04:19:42.152Z,100987.28
2023-08-07T04:20:13.857Z,100985.44
2023-08-07T04:20:55.188Z,100995.72
2023-08-07T04:21:26.810Z,100987.28
2023-08-07T04:21:58.408Z,100989.13
2023-08-07T04:22:30.203Z,100993.63
2023-08-07T04:23:01.949Z,100994.84
2023-08-07T04:23:33.964Z,100996.69
2023-08-07T04:24:11.389Z,100999.38
2023-08-07T04:24:43.047Z,100986.59
2023-08-07T04:25:14.872Z,100990.31
2023-08-07T04:25:48.279Z,100997.53
2023-08-07T04:26:19.901Z,100989.84
2023-08-07T04:26:51.642Z,100995.44
2023-08-07T04:27:23.202Z,100978.34
2023-08-07T04:27:54.738Z,100993.81
2023-08-07T04:28:29.520Z,100997.88
2023-08-07T04:29:01.350Z,100988.22
2023-08-07T04:29:32.956Z,100988.00
2023-08-07T04:30:06.904Z,100998.91
2023-08-07T04:30:38.530Z,100989.41
2023-08-07T04:31:10.128Z,100993.72
2023-08-07T04:31:41.705Z,100997.19
2023-08-07T04:32:13.318Z,101001.38
2023-08-07T04:32:44.912Z,100998.47
2023-08-07T04:33:16.506Z,101002.19
2023-08-07T04:33:48.025Z,100995.56
2023-08-07T04:34:20.108Z,101000.09
2023-08-07T04:34:51.752Z,100991.84
2023-08-07T04:35:23.381Z,100997.19
2023-08-07T04:35:54.925Z,100999.63
2023-08-07T04:36:26.507Z,100999.19
2023-08-07T04:36:58.387Z,101003.94
2023-08-07T04:37:31.519Z,101006.38
2023-08-07T04:38:03.778Z,101006.16
2023-08-07T04:38:35.453Z,101000.44
2023-08-07T04:39:07.074Z,101007.78
2023-08-07T04:39:38.757Z,101000.34
2023-08-07T04:40:11.084Z,101011.50
2023-08-07T04:40:46.928Z,101011.50
2023-08-07T04:41:18.459Z,101004.06
2023-08-07T04:41:52.829Z,101003.63
2023-08-07T04:42:24.523Z,101005.69
2023-08-07T04:42:56.253Z,101008.97
2023-08-07T04:43:29.020Z,101015.34
2023-08-07T04:44:00.595Z,100998.72
2023-08-07T04:44:32.131Z,101004.44
2023-08-07T04:45:03.914Z,101007.34
2023-08-07T04:45:37.712Z,101003.25
2023-08-07T04:46:10.670Z,101005.69
2023-08-07T04:46:42.528Z,101010.22
2023-08-07T04:47:14.100Z,101008.59
2023-08-07T04:47:45.737Z,101016.84
2023-08-07T04:48:18.940Z,101010.09
2023-08-07T04:48:50.808Z,101008.25
2023-08-07T04:49:22.426Z,101012.53
2023-08-07T04:49:54.722Z,101011.97
2023-08-07T04:50:26.803Z,101013.38
2023-08-07T04:50:59.029Z,101014.75
2023-08-07T04:51:32.364Z,101014.31
2023-08-07T04:52:16.737Z,101015.94
2023-08-07T04:52:52.453Z,101013.84
2023-08-07T04:53:24.123Z,101014.91
2023-08-07T04:53:57.784Z,101016.75
2023-08-07T04:54:29.341Z,101019.59
2023-08-07T04:55:01.158Z,101020.41
2023-08-07T04:55:32.981Z,101016.69
2023-08-07T04:56:04.828Z,101018.09
2023-08-07T04:56:36.499Z,101021.13
2023-08-07T04:57:08.645Z,101016.34
2023-08-07T04:57:40.257Z,101018.00
2023-08-07T04:58:11.796Z,101017.41
2023-08-07T04:58:43.385Z,101026.00
2023-08-07T04:59:15.060Z,101021.25
2023-08-07T04:59:46.693Z,101019.38
2023-08-07T05:00:18.404Z,101022.06
2023-08-07T05:00:56.172Z,101017.06
2023-08-07T05:01:27.847Z,101020.91
2023-08-07T05:01:59.558Z,101026.03
2023-08-07T05:02:31.209Z,101022.53
2023-08-07T05:03:03.233Z,101019.22
2023-08-07T05:03:35.035Z,101026.56
2023-08-07T05:04:07.511Z,101026.13
2023-08-07T05:04:39.136Z,101029.25
2023-08-07T05:05:10.833Z,101026.13
2023-08-07T05:05:42.483Z,101024.03
2023-08-07T05:06:14.064Z,101027.75
2023-08-07T05:06:45.669Z,101026.81
2023-08-07T05:07:18.262Z,101032.16
2023-08-07T05:07:49.957Z,101037.06
2023-08-07T05:08:21.544Z,101030.56
2023-08-07T05:08:53.145Z,101041.50
2023-08-07T05:09:24.770Z,101039.19
2023-08-07T05:09:56.353Z,101039.19
2023-08-07T05:10:27.968Z,101032.56
2023-08-07T05:10:59.591Z,101038.97
2023-08-07T05:11:31.145Z,101035.13
2023-08-07T05:12:02.750Z,101035.81
2023-08-07T05:12:34.432Z,101036.41
2023-08-07T05:13:06.044Z,101039.66
2023-08-07T05:13:37.648Z,101040.81
2023-08-07T05:14:09.185Z,101041.66
2023-08-07T05:14:40.716Z,101043.38
2023-08-07T05:15:12.420Z,101048.03
2023-08-07T05:15:44.045Z,101049.31
2023-08-07T05:16:15.735Z,101049.09
2023-08-07T05:16:47.865Z,101042.69
2023-08-07T05:17:19.468Z,101045.94
2023-08-07T05:17:52.034Z,101041.88
2023-08-07T05:18:23.882Z,101043.88
2023-08-07T05:18:56.149Z,101049.81
2023-08-07T05:19:27.733Z,101038.06
2023-08-07T05:19:59.354Z,101045.03
2023-08-07T05:20:30.924Z,101049.59
2023-08-07T05:21:02.941Z,101045.03
2023-08-07T05:21:34.589Z,101042.94
2023-08-07T05:22:06.316Z,101049.94
2023-08-07T05:22:38.720Z,101049.13
2023-08-07T05:23:11.519Z,101048.31
2023-08-07T05:23:43.122Z,101047.16
2023-08-07T05:24:14.658Z,101050.63
2023-08-07T05:24:46.584Z,101050.06
2023-08-07T05:25:19.477Z,101044.94
2023-08-07T05:25:51.094Z,101047.59
2023-08-07T05:26:22.904Z,101056.00
2023-08-07T05:26:54.444Z,101049.00
2023-08-07T05:27:26.017Z,101053.41
2023-08-07T05:27:57.599Z,101041.88
2023-08-07T05:28:29.347Z,101045.25
2023-08-07T05:29:00.956Z,101053.88
2023-08-07T05:29:32.508Z,101047.34
2023-08-07T05:30:05.413Z,101052.69
2023-08-07T05:30:37.071Z,101045.72
2023-08-07T05:31:08.640Z,101051.06
2023-08-07T05:31:40.248Z,101051.06
2023-08-07T05:32:12.794Z,101049.44
2023-08-07T05:32:44.495Z,101052.34
2023-08-07T05:33:16.710Z,101049.44
2023-08-07T05:33:48.354Z,101044.56
2023-08-07T05:34:20.038Z,101052.59
2023-08-07T05:34:51.824Z,101054.78
2023-08-07T05:35:23.362Z,101046.75
2023-08-07T05:35:56.586Z,101054.91
2023-08-07T05:36:28.260Z,101058.16
2023-08-07T05:36:59.881Z,101053.41
2023-08-07T05:37:32.781Z,101062.47
2023-08-07T05:38:04.574Z,101059.78
2023-08-07T05:38:36.256Z,101057.13
2023-08-07T05:39:08.320Z,101057.13
2023-08-07T05:39:40.053Z,101059.56
2023-08-07T05:40:13.224Z,101063.44
2023-08-07T05:40:45.104Z,101072.28
2023-08-07T05:41:17.413Z,101059.47
2023-08-07T05:41:49.000Z,101060.88
2023-08-07T05:42:20.617Z,101057.25
2023-08-07T05:42:52.158Z,101063.78
2023-08-07T05:43:24.226Z,101055.03
2023-08-07T05:43:55.745Z,101063.00
2023-08-07T05:44:27.406Z,101059.13
2023-08-07T05:44:59.982Z,101059.84
2023-08-07T05:45:31.597Z,101073.47
2023-08-07T05:46:03.173Z,101066.34
2023-08-07T05:46:34.799Z,101067.75
2023-08-07T05:47:07.019Z,101068.22
2023-08-07T05:47:38.802Z,101072.53
2023-08-07T05:48:10.528Z,101070.56
2023-08-07T05:48:42.100Z,101066.47
2023-08-07T05:49:13.637Z,101066.91
2023-08-07T05:49:45.225Z,101069.47
2023-08-07T05:50:16.994Z,101067.50
2023-08-07T05:50:48.632Z,101072.50
2023-08-07T05:51:20.819Z,101068.22
2023-08-07T05:51:52.406Z,101072.97
2023-08-07T05:52:24.048Z,101071.94
2023-08-07T05:52:55.664Z,101078.34
2023-08-07T05:53:27.250Z,101073.56
2023-08-07T05:53:58.847Z,101078.34
2023-08-07T05:54:30.386Z,101081.25
2023-08-07T05:55:01.980Z,101079.63
2023-08-07T05:55:33.773Z,101083.81
2023-08-07T05:56:05.501Z,101083.00
2023-08-07T05:56:38.677Z,101076.13
2023-08-07T05:57:10.704Z,101079.72
2023-08-07T05:57:42.447Z,101079.63
2023-08-07T05:58:14.072Z,101084.75
2023-08-07T05:58:45.730Z,101083.47
2023-08-07T05:59:17.386Z,101080.78
2023-08-07T05:59:48.924Z,101079.63
2023-08-07T06:00:20.722Z,101084.84
2023-08-07T06:00:52.879Z,101077.63
2023-08-07T06:01:30.480Z,101087.53
2023-08-07T06:02:02.509Z,101079.72
2023-08-07T06:02:34.417Z,101079.72
2023-08-07T06:03:06.034Z,101078.91
2023-08-07T06:03:37.636Z,101074.81
2023-08-07T06:04:10.220Z,101078.06
2023-08-07T06:04:42.156Z,101081.78
2023-08-07T06:05:17.468Z,101092.97
2023-08-07T06:05:49.072Z,101088.78
2023-08-07T06:06:20.708Z,101088.78
2023-08-07T06:06:52.299Z,101089.63
2023-08-07T06:07:23.921Z,101096.38
2023-08-07T06:07:55.487Z,101092.88
2023-08-07T06:08:27.074Z,101099.06
2023-08-07T06:09:00.810Z,101088.34
2023-08-07T06:09:32.765Z,101100.09
2023-08-07T06:10:04.690Z,101091.69
2023-08-07T06:10:54.830Z,101096.22